Startpagina
METAR-TAF:

METAR-TAF

Vliegvelden :

Luchthaven van Praag

Praag, Tsjechië

breedte: 50-06N, lengte: 014-15E, hoogte: 365 m

Actueel weer

Dit bericht is 19 minuten geleden gemaakt, om 18:00 UTC
Wind 7 kt uit het zuidwesten
Temperatuur 21°C
Vochtigheid 56%
Druk 1020 hPa
Zicht 10 km of meer
geen wolken onder 1500 m en geen cumulonimbus

METAR: LKPR 191800Z 22007KT CAVOK 21/12 Q1020 NOSIG

Tijdstip: 20:19 (18:19 UTC)

Verwachting

Dit bericht is 1 uur en het 19 minuten geleden gemaakt, om 17:00 UTC
Verwachting geldig van 19 om 18 UTC tot 21 om 00 UTC
Wind 6 kt uit het zuidwesten
Zicht 10 km of meer
geen wolken onder 1500 m en geen cumulonimbus
Tijdelijke
van 19 om 18 UTC tot 20 om 07 UTC
Wind 2 kt uit variabele richting

TAF: LKPR 191700Z 1918/2100 23006KT CAVOK TEMPO 1918/2007 VRB02KT

Waarnemingen en weersverwachtingen van meer dan 4000 vliegvelden (METAR en TAF).

De beschikbare stations zijn de gele en rode punten op de kaart.

Ga met uw muis naar het station om de naam te zien.

Klik dan om waarnemingen en weersverwachtingen te zien.

kaart wijzigen: klik op de groene knoppen met een zwart kruis om in te zoomen, op de groene knop met een streepje om uit te zoomen of op de groene pijlen voor aangrenzende kaarten.


METAR-TAF: